createdAt,value
2023-04-07T00:03:09.019Z,12.75
2023-04-07T00:08:11.899Z,14.30
2023-04-07T00:13:14.708Z,14.05
2023-04-07T00:18:18.932Z,13.07
2023-04-07T00:23:21.795Z,12.65
2023-04-07T00:28:24.490Z,12.75
2023-04-07T00:33:28.772Z,12.73
2023-04-07T00:38:31.750Z,12.48
2023-04-07T00:43:34.752Z,12.02
2023-04-07T00:48:39.364Z,12.57
2023-04-07T00:53:42.816Z,11.13
2023-04-07T00:58:46.001Z,11.55
2023-04-07T01:03:58.020Z,11.55
2023-04-07T01:09:06.153Z,10.65
2023-04-07T01:14:11.242Z,11.93
2023-04-07T01:19:35.092Z,10.75
2023-04-07T01:24:58.719Z,11.75
2023-04-07T01:30:04.870Z,11.80
2023-04-07T01:35:11.435Z,11.77
2023-04-07T01:40:15.009Z,11.70
2023-04-07T01:45:19.681Z,11.32
2023-04-07T01:50:23.060Z,9.55
2023-04-07T01:55:26.594Z,12.60
2023-04-07T02:00:40.518Z,10.75
2023-04-07T02:05:49.450Z,10.55
2023-04-07T02:10:53.879Z,9.80
2023-04-07T02:15:59.050Z,10.73
2023-04-07T02:21:04.943Z,10.82
2023-04-07T02:26:07.899Z,11.07
2023-04-07T02:31:13.746Z,12.18
2023-04-07T02:36:16.648Z,12.68
2023-04-07T02:41:19.493Z,13.80
2023-04-07T02:46:23.761Z,12.60
2023-04-07T02:51:27.616Z,12.52
2023-04-07T02:56:31.079Z,13.48
2023-04-07T03:01:36.500Z,14.18
2023-04-07T03:06:39.480Z,15.07
2023-04-07T03:11:51.164Z,14.63
2023-04-07T03:16:56.443Z,16.10
2023-04-07T03:22:00.292Z,15.90
2023-04-07T03:27:03.642Z,16.48
2023-04-07T03:32:16.705Z,17.10
2023-04-07T03:37:19.764Z,16.20
2023-04-07T03:42:22.703Z,15.82
2023-04-07T03:47:29.536Z,16.75
2023-04-07T03:52:37.674Z,17.85
2023-04-07T03:57:49.757Z,17.40
2023-04-07T04:02:54.519Z,16.83
2023-04-07T04:07:57.545Z,15.63
2023-04-07T04:13:00.992Z,17.52
2023-04-07T04:18:05.394Z,17.17
2023-04-07T04:23:09.828Z,16.95
2023-04-07T04:28:13.658Z,14.18
2023-04-07T04:33:18.782Z,14.55
2023-04-07T04:38:33.396Z,13.20
2023-04-07T04:44:02.373Z,15.38
2023-04-07T04:49:08.159Z,14.48
2023-04-07T04:54:12.259Z,14.02
2023-04-07T04:59:15.693Z,14.40
2023-04-07T05:04:33.149Z,14.18
2023-04-07T05:09:45.957Z,15.10
2023-04-07T05:14:50.500Z,15.35
2023-04-07T05:19:55.853Z,13.00
2023-04-07T05:25:10.897Z,12.00
2023-04-07T05:30:16.218Z,12.70
2023-04-07T05:35:21.497Z,12.90
2023-04-07T05:40:30.220Z,14.18
2023-04-07T05:45:36.237Z,12.13
2023-04-07T05:50:40.527Z,12.48
2023-04-07T05:55:47.565Z,11.93
2023-04-07T06:01:20.634Z,15.43
2023-04-07T06:06:26.311Z,15.55
2023-04-07T06:11:29.445Z,16.77
2023-04-07T06:16:32.258Z,18.70
2023-04-07T06:21:36.420Z,20.63
2023-04-07T06:26:41.691Z,18.75
2023-04-07T06:31:44.630Z,21.40
2023-04-07T06:36:49.781Z,17.40
2023-04-07T06:41:54.393Z,22.17
2023-04-07T06:46:57.667Z,20.67
2023-04-07T06:52:01.775Z,19.17
2023-04-07T06:57:06.686Z,20.17
2023-04-07T07:02:10.571Z,19.92
2023-04-07T07:07:15.420Z,18.10
2023-04-07T07:12:19.205Z,17.85
2023-04-07T07:17:21.966Z,14.90
2023-04-07T07:22:26.796Z,15.02
2023-04-07T07:27:29.479Z,15.50
2023-04-07T07:32:32.262Z,14.20
2023-04-07T07:37:36.529Z,13.57
2023-04-07T07:42:39.571Z,15.48
2023-04-07T07:47:42.662Z,13.18
2023-04-07T07:52:47.755Z,16.25
2023-04-07T07:57:51.333Z,14.50
2023-04-07T08:02:54.402Z,13.27
2023-04-07T08:08:03.010Z,13.35
2023-04-07T08:13:06.502Z,12.05
2023-04-07T08:18:09.310Z,13.57
2023-04-07T08:23:13.942Z,14.98
2023-04-07T08:28:16.960Z,12.15
2023-04-07T08:33:19.895Z,10.25
2023-04-07T08:38:24.700Z,10.57
2023-04-07T08:43:29.789Z,10.95
2023-04-07T08:48:34.089Z,10.85
2023-04-07T08:53:44.385Z,13.07
2023-04-07T08:58:48.926Z,13.10
2023-04-07T09:03:52.443Z,11.07
2023-04-07T09:08:56.828Z,12.30
2023-04-07T09:14:01.870Z,13.43
2023-04-07T09:19:06.752Z,11.48
2023-04-07T09:24:22.382Z,11.90
2023-04-07T09:29:26.670Z,8.43
2023-04-07T09:34:32.979Z,6.15
2023-04-07T09:39:50.552Z,4.70
2023-04-07T09:44:53.559Z,4.17
2023-04-07T09:49:59.495Z,4.72
2023-04-07T09:55:07.751Z,5.68
2023-04-07T10:00:12.307Z,5.95
2023-04-07T10:05:21.046Z,5.85
2023-04-07T10:10:26.522Z,5.63
2023-04-07T10:15:30.346Z,6.50
2023-04-07T10:20:33.465Z,3.58
2023-04-07T10:25:40.237Z,6.82
2023-04-07T10:30:45.128Z,4.60
2023-04-07T10:36:08.864Z,4.60
2023-04-07T10:41:36.607Z,3.42
2023-04-07T10:52:28.533Z,2.45
2023-04-07T10:57:33.803Z,3.63
2023-04-07T11:02:37.040Z,3.22
2023-04-07T11:07:48.751Z,2.97
2023-04-07T11:13:06.217Z,2.70
2023-04-07T11:18:18.496Z,2.53
2023-04-07T11:23:25.425Z,3.00
2023-04-07T11:28:29.984Z,2.78
2023-04-07T11:33:34.926Z,2.97
2023-04-07T11:38:39.368Z,3.25
2023-04-07T11:43:43.983Z,3.70
2023-04-07T11:48:47.902Z,5.25
2023-04-07T11:53:56.937Z,4.38
2023-04-07T11:59:02.553Z,5.38
2023-04-07T12:04:06.155Z,7.40
2023-04-07T12:09:10.332Z,4.45
2023-04-07T12:14:14.493Z,4.50
2023-04-07T12:19:18.299Z,3.50
2023-04-07T12:24:21.284Z,3.65
2023-04-07T12:29:25.543Z,4.20
2023-04-07T12:34:28.904Z,4.60
2023-04-07T12:39:31.741Z,4.40
2023-04-07T12:44:36.891Z,4.47
2023-04-07T12:49:39.615Z,4.18
2023-04-07T12:54:43.037Z,5.15
2023-04-07T12:59:47.937Z,4.18
2023-04-07T13:04:50.743Z,4.85
2023-04-07T13:09:54.956Z,4.68
2023-04-07T13:15:00.491Z,4.07
2023-04-07T13:20:04.694Z,7.60
2023-04-07T13:25:10.019Z,8.18
2023-04-07T13:30:16.219Z,4.10
2023-04-07T13:35:20.390Z,4.10
2023-04-07T13:40:23.960Z,3.55
2023-04-07T13:45:28.380Z,3.42
2023-04-07T13:50:31.739Z,2.75
2023-04-07T13:55:34.542Z,2.80
2023-04-07T14:00:38.639Z,2.78
2023-04-07T14:05:41.355Z,2.72
2023-04-07T14:10:44.050Z,3.70
2023-04-07T14:15:49.604Z,2.92
2023-04-07T14:20:52.423Z,2.65
2023-04-07T14:25:55.176Z,3.63
2023-04-07T14:30:59.260Z,2.63
2023-04-07T14:36:02.516Z,2.92
2023-04-07T14:41:10.101Z,2.47
2023-04-07T14:46:15.384Z,2.60
2023-04-07T14:51:18.247Z,2.83
2023-04-07T14:56:22.795Z,2.95
2023-04-07T15:01:27.232Z,3.53
2023-04-07T15:06:30.384Z,4.35
2023-04-07T15:11:33.723Z,3.92
2023-04-07T15:16:38.029Z,4.18
2023-04-07T15:21:40.942Z,4.28
2023-04-07T15:26:44.112Z,4.22
2023-04-07T15:31:48.692Z,4.50
2023-04-07T15:36:51.595Z,5.05
2023-04-07T15:41:54.491Z,4.65
2023-04-07T15:46:58.676Z,4.40
2023-04-07T15:52:02.085Z,5.57
2023-04-07T15:57:04.882Z,6.60
2023-04-07T16:02:09.194Z,5.97
2023-04-07T16:07:13.433Z,7.47
2023-04-07T16:12:16.553Z,6.60
2023-04-07T16:17:20.996Z,6.18
2023-04-07T16:22:23.715Z,6.28
2023-04-07T16:27:26.699Z,7.13
2023-04-07T16:32:30.844Z,5.40
2023-04-07T16:37:34.618Z,3.30
2023-04-07T16:42:37.619Z,3.20
2023-04-07T16:47:44.420Z,2.83
2023-04-07T16:52:48.024Z,2.38
2023-04-07T16:57:51.048Z,2.53
2023-04-07T17:02:55.370Z,2.78
2023-04-07T17:07:58.187Z,1.98
2023-04-07T17:13:00.906Z,2.58
2023-04-07T17:18:06.168Z,3.35
2023-04-07T17:23:10.268Z,5.07
2023-04-07T17:28:13.260Z,5.57
2023-04-07T17:33:18.009Z,5.05
2023-04-07T17:38:20.826Z,5.43
2023-04-07T17:43:23.620Z,4.80
2023-04-07T17:48:27.828Z,5.63
2023-04-07T17:53:31.233Z,6.95
2023-04-07T17:58:36.796Z,7.75
2023-04-07T18:03:41.061Z,8.20
2023-04-07T18:08:46.157Z,7.53
2023-04-07T18:13:49.109Z,8.23
2023-04-07T18:18:53.536Z,6.90
2023-04-07T18:23:56.307Z,7.18
2023-04-07T18:28:59.172Z,6.72
2023-04-07T18:34:03.362Z,13.00
2023-04-07T18:39:06.206Z,10.40
2023-04-07T18:44:09.000Z,33.92
2023-04-07T18:49:13.777Z,13.70
2023-04-07T18:54:16.503Z,12.27
2023-04-07T18:59:20.273Z,10.35
2023-04-07T19:04:25.331Z,8.80
2023-04-07T19:09:28.351Z,13.73
2023-04-07T19:14:31.242Z,12.70
2023-04-07T19:19:36.260Z,13.07
2023-04-07T19:24:40.261Z,11.15
2023-04-07T19:29:43.191Z,11.02
2023-04-07T19:34:47.310Z,10.95
2023-04-07T19:39:59.691Z,13.60
2023-04-07T19:45:08.154Z,16.67
2023-04-07T19:50:14.265Z,15.38
2023-04-07T19:55:17.253Z,13.45
2023-04-07T20:00:20.366Z,14.05
2023-04-07T20:05:27.396Z,14.10
2023-04-07T20:10:30.357Z,11.85
2023-04-07T20:15:33.070Z,12.52
2023-04-07T20:20:37.680Z,13.05
2023-04-07T20:25:40.697Z,11.93
2023-04-07T20:30:44.437Z,15.85
2023-04-07T20:35:49.427Z,15.52
2023-04-07T20:40:52.977Z,14.35
2023-04-07T20:45:56.770Z,13.77
2023-04-07T20:51:01.402Z,15.35
2023-04-07T20:56:04.744Z,16.05
2023-04-07T21:01:07.785Z,19.65
2023-04-07T21:06:11.982Z,20.27
2023-04-07T21:11:14.786Z,19.55
2023-04-07T21:16:17.717Z,14.90
2023-04-07T21:21:22.122Z,17.05
2023-04-07T21:26:24.907Z,17.05
2023-04-07T21:31:27.862Z,17.30
2023-04-07T21:36:32.800Z,18.70
2023-04-07T21:41:35.702Z,18.23
2023-04-07T21:46:38.852Z,16.73
2023-04-07T21:51:42.923Z,18.00
2023-04-07T21:56:49.161Z,18.10
2023-04-07T22:01:52.544Z,17.80
2023-04-07T22:06:58.094Z,17.55
2023-04-07T22:12:01.263Z,20.52
2023-04-07T22:17:04.323Z,20.73
2023-04-07T22:22:08.509Z,18.65
2023-04-07T22:27:11.258Z,19.45
2023-04-07T22:32:14.301Z,17.35
2023-04-07T22:37:19.302Z,20.80
2023-04-07T22:42:22.080Z,20.27
2023-04-07T22:47:24.908Z,17.02
2023-04-07T22:52:29.196Z,16.30
2023-04-07T22:57:31.993Z,17.17
2023-04-07T23:02:34.918Z,19.20
2023-04-07T23:07:39.396Z,18.05
2023-04-07T23:12:42.507Z,16.27
2023-04-07T23:17:45.317Z,16.52
2023-04-07T23:22:49.541Z,17.08
2023-04-07T23:27:52.327Z,16.50
2023-04-07T23:32:55.417Z,18.20
2023-04-07T23:37:59.523Z,17.92
2023-04-07T23:43:02.368Z,18.40
2023-04-07T23:48:05.078Z,18.67
2023-04-07T23:53:09.255Z,18.45
2023-04-07T23:58:12.194Z,17.40
